createdAt,value
2022-11-02T00:00:36.376Z,9.10
2022-11-02T00:03:24.801Z,10.20
2022-11-02T00:05:53.146Z,9.10
2022-11-02T00:08:21.688Z,9.50
2022-11-02T00:10:50.058Z,11.40
2022-11-02T00:13:21.435Z,10.60
2022-11-02T00:15:50.286Z,10.80
2022-11-02T00:18:18.927Z,9.20
2022-11-02T00:20:47.499Z,11.20
2022-11-02T00:23:16.307Z,10.40
2022-11-02T00:25:49.139Z,10.30
2022-11-02T00:28:17.561Z,11.40
2022-11-02T00:30:46.912Z,10.90
2022-11-02T00:33:15.375Z,11.30
2022-11-02T00:35:45.462Z,10.70
2022-11-02T00:38:13.886Z,11.60
2022-11-02T00:40:42.360Z,11.00
2022-11-02T00:43:10.972Z,11.70
2022-11-02T00:45:40.337Z,11.50
2022-11-02T00:48:09.066Z,11.20
2022-11-02T00:50:37.490Z,12.00
2022-11-02T00:53:05.895Z,11.00
2022-11-02T00:55:35.086Z,11.50
2022-11-02T00:58:05.143Z,11.70
2022-11-02T01:00:34.597Z,11.70
2022-11-02T01:03:03.051Z,10.20
2022-11-02T01:05:31.437Z,11.10
2022-11-02T01:07:59.881Z,12.00
2022-11-02T01:10:28.810Z,11.70
2022-11-02T01:12:57.479Z,9.90
2022-11-02T01:15:25.867Z,9.50
2022-11-02T01:17:54.502Z,9.90
2022-11-02T01:20:23.105Z,9.50
2022-11-02T01:22:51.778Z,10.00
2022-11-02T01:25:21.966Z,10.60
2022-11-02T01:27:50.568Z,10.60
2022-11-02T01:30:19.284Z,11.50
2022-11-02T01:32:47.652Z,10.30
2022-11-02T01:35:17.022Z,9.70
2022-11-02T01:37:45.594Z,10.80
2022-11-02T01:40:14.139Z,11.60
2022-11-02T01:42:42.532Z,11.20
2022-11-02T01:45:13.917Z,12.10
2022-11-02T01:47:48.112Z,10.90
2022-11-02T01:52:54.346Z,13.10
2022-11-02T01:55:30.310Z,11.00
2022-11-02T01:58:12.305Z,10.60
2022-11-02T02:00:40.814Z,10.80
2022-11-02T02:03:18.517Z,10.40
2022-11-02T02:06:00.042Z,11.40
2022-11-02T02:08:29.398Z,11.50
2022-11-02T02:10:58.850Z,14.70
2022-11-02T02:13:29.484Z,14.00
2022-11-02T02:16:43.563Z,14.40
2022-11-02T02:19:39.779Z,14.50
2022-11-02T02:22:48.098Z,12.80
2022-11-02T02:26:04.259Z,14.50
2022-11-02T02:28:49.475Z,12.30
2022-11-02T02:31:23.235Z,15.00
2022-11-02T02:45:15.588Z,13.80
2022-11-02T02:48:12.043Z,15.30
2022-11-02T02:51:02.437Z,14.20
2022-11-02T02:53:38.799Z,14.30
2022-11-02T02:56:28.418Z,14.40
2022-11-02T02:59:08.221Z,14.10
2022-11-02T03:01:42.580Z,13.70
2022-11-02T03:04:14.360Z,14.80
2022-11-02T03:06:49.162Z,13.00
2022-11-02T03:09:50.747Z,13.30
2022-11-02T03:13:02.266Z,12.00
2022-11-02T03:26:45.169Z,12.60
2022-11-02T03:29:26.381Z,12.90
2022-11-02T03:32:04.102Z,13.70
2022-11-02T03:34:52.931Z,14.20
2022-11-02T03:37:51.703Z,14.70
2022-11-02T03:40:35.818Z,15.80
2022-11-02T03:43:06.527Z,13.80
2022-11-02T03:45:44.146Z,13.00
2022-11-02T03:48:15.210Z,12.90
2022-11-02T03:50:51.356Z,15.90
2022-11-02T03:53:38.165Z,16.70
2022-11-02T03:56:14.760Z,13.70
2022-11-02T03:58:44.457Z,14.70
2022-11-02T04:01:14.979Z,14.40
2022-11-02T04:03:47.233Z,14.90
2022-11-02T04:06:16.614Z,16.50
2022-11-02T04:08:49.821Z,15.80
2022-11-02T04:11:38.770Z,15.30
2022-11-02T04:14:30.240Z,13.20
2022-11-02T04:17:17.869Z,14.00
2022-11-02T04:19:50.082Z,14.90
2022-11-02T04:22:38.666Z,15.20
2022-11-02T04:25:16.517Z,13.80
2022-11-02T04:27:54.037Z,16.10
2022-11-02T04:30:29.770Z,16.50
2022-11-02T04:33:18.344Z,17.40
2022-11-02T04:35:51.818Z,16.40
2022-11-02T04:38:38.830Z,15.30
2022-11-02T04:41:34.648Z,17.60
2022-11-02T04:44:04.433Z,16.40
2022-11-02T04:46:36.449Z,16.60
2022-11-02T04:49:07.158Z,15.60
2022-11-02T04:51:36.765Z,16.20
2022-11-02T04:54:05.595Z,15.50
2022-11-02T04:56:34.468Z,16.10
2022-11-02T04:59:03.024Z,16.80
2022-11-02T05:01:33.110Z,16.90
2022-11-02T05:04:02.316Z,14.50
2022-11-02T05:06:32.451Z,16.00
2022-11-02T05:09:01.497Z,16.30
2022-11-02T05:11:30.352Z,15.80
2022-11-02T05:13:59.045Z,11.70
2022-11-02T05:16:28.782Z,15.60
2022-11-02T05:18:57.843Z,18.00
2022-11-02T05:21:26.562Z,15.70
2022-11-02T05:23:56.123Z,14.70
2022-11-02T05:26:24.549Z,14.40
2022-11-02T05:28:53.161Z,17.70
2022-11-02T05:31:22.061Z,16.00
2022-11-02T05:33:50.606Z,13.80
2022-11-02T05:36:21.613Z,14.50
2022-11-02T05:38:56.220Z,12.60
2022-11-02T05:41:24.895Z,15.80
2022-11-02T05:43:55.903Z,15.40
2022-11-02T05:46:25.211Z,16.10
2022-11-02T05:48:53.661Z,15.70
2022-11-02T05:51:22.260Z,16.40
2022-11-02T05:53:50.715Z,14.80
2022-11-02T05:56:24.568Z,16.60
2022-11-02T05:58:55.438Z,13.70
2022-11-02T06:01:24.052Z,15.10
2022-11-02T06:03:53.948Z,16.10
2022-11-02T06:06:23.297Z,14.60
2022-11-02T06:08:51.908Z,15.60
2022-11-02T06:11:20.575Z,15.50
2022-11-02T06:24:49.095Z,16.40
2022-11-02T06:27:17.690Z,16.50
2022-11-02T06:29:47.342Z,16.80
2022-11-02T06:32:16.448Z,16.50
2022-11-02T06:34:44.790Z,16.50
2022-11-02T06:37:13.229Z,17.50
2022-11-02T06:39:41.689Z,15.10
2022-11-02T06:42:10.317Z,16.20
2022-11-02T06:44:38.698Z,18.10
2022-11-02T06:47:07.430Z,17.00
2022-11-02T06:49:35.708Z,16.40
2022-11-02T06:52:04.313Z,16.50
2022-11-02T06:54:32.831Z,19.90
2022-11-02T06:57:01.104Z,16.80
2022-11-02T06:59:29.488Z,19.30
2022-11-02T07:01:58.114Z,17.00
2022-11-02T07:04:26.602Z,18.80
2022-11-02T07:06:55.244Z,16.30
2022-11-02T07:09:23.734Z,17.20
2022-11-02T07:11:52.283Z,18.60
2022-11-02T07:14:20.863Z,18.10
2022-11-02T07:16:49.307Z,15.60
2022-11-02T07:19:17.703Z,16.80
2022-11-02T07:21:47.756Z,16.80
2022-11-02T07:24:16.623Z,9.50
2022-11-02T07:26:47.774Z,14.30
2022-11-02T07:29:18.133Z,16.50
2022-11-02T07:31:46.887Z,12.30
2022-11-02T07:34:17.168Z,14.00
2022-11-02T07:36:46.548Z,14.20
2022-11-02T07:39:15.032Z,14.60
2022-11-02T07:41:46.701Z,10.90
2022-11-02T07:44:17.781Z,15.10
2022-11-02T07:46:55.573Z,14.80
2022-11-02T07:49:23.917Z,14.20
2022-11-02T07:51:52.370Z,15.90
2022-11-02T07:54:20.976Z,14.60
2022-11-02T07:56:49.403Z,14.20
2022-11-02T07:59:17.739Z,13.60
2022-11-02T08:01:46.326Z,16.00
2022-11-02T08:04:15.140Z,10.10
2022-11-02T08:06:43.540Z,11.40
2022-11-02T08:09:12.390Z,15.10
2022-11-02T08:12:00.819Z,14.10
2022-11-02T08:14:29.159Z,14.00
2022-11-02T08:16:57.534Z,14.70
2022-11-02T08:19:25.908Z,22.80
2022-11-02T08:21:56.615Z,11.80
2022-11-02T08:24:25.251Z,14.20
2022-11-02T08:26:54.915Z,12.00
2022-11-02T08:29:23.693Z,10.10
2022-11-02T08:31:52.255Z,10.90
2022-11-02T08:34:20.736Z,10.70
2022-11-02T08:36:50.459Z,10.80
2022-11-02T08:39:19.326Z,11.50
2022-11-02T08:41:47.898Z,11.00
2022-11-02T08:44:16.445Z,10.80
2022-11-02T08:47:03.088Z,18.50
2022-11-02T08:49:33.966Z,12.40
2022-11-02T08:52:02.456Z,15.10
2022-11-02T08:54:31.092Z,12.60
2022-11-02T08:56:59.651Z,12.00
2022-11-02T08:59:28.145Z,12.40
2022-11-02T09:01:57.276Z,10.60
2022-11-02T09:04:26.480Z,14.50
2022-11-02T09:06:54.944Z,11.10
2022-11-02T09:09:23.681Z,12.30
2022-11-02T09:11:52.113Z,12.40
2022-11-02T09:14:20.916Z,11.40
2022-11-02T09:16:49.542Z,30.60
2022-11-02T09:19:18.118Z,12.20
2022-11-02T09:21:48.366Z,12.40
2022-11-02T09:24:16.994Z,12.00
2022-11-02T09:26:45.541Z,13.20
2022-11-02T09:29:14.109Z,12.30
2022-11-02T09:31:43.142Z,12.60
2022-11-02T09:34:11.695Z,12.40
2022-11-02T09:36:40.255Z,11.00
2022-11-02T09:39:09.445Z,12.30
2022-11-02T09:41:50.001Z,11.00
2022-11-02T09:44:56.050Z,10.20
2022-11-02T09:53:05.007Z,10.00
2022-11-02T09:55:41.897Z,10.50
2022-11-02T09:58:20.139Z,12.00
2022-11-02T10:00:52.685Z,9.60
2022-11-02T10:04:00.949Z,11.90
2022-11-02T10:06:30.828Z,12.00
2022-11-02T10:09:35.742Z,11.00
2022-11-02T10:15:06.061Z,8.60
2022-11-02T10:17:39.083Z,10.30
2022-11-02T10:20:40.744Z,10.00
2022-11-02T10:23:24.923Z,10.20
2022-11-02T10:25:53.662Z,10.10
2022-11-02T10:28:33.532Z,9.60
2022-11-02T10:31:03.929Z,10.90
2022-11-02T10:33:32.412Z,11.10
2022-11-02T10:36:18.239Z,10.00
2022-11-02T10:39:15.050Z,10.40
2022-11-02T10:42:24.578Z,9.40
2022-11-02T10:45:08.058Z,10.80
2022-11-02T10:48:15.393Z,9.60
2022-11-02T10:51:14.782Z,9.70
2022-11-02T10:53:47.024Z,9.70
2022-11-02T10:56:30.369Z,10.70
2022-11-02T10:59:20.501Z,9.70
2022-11-02T11:01:59.070Z,10.00
2022-11-02T11:04:30.833Z,9.50
2022-11-02T11:07:25.851Z,11.70
2022-11-02T11:09:57.748Z,10.00
2022-11-02T11:12:41.734Z,9.30
2022-11-02T11:15:48.709Z,9.60
2022-11-02T11:21:10.299Z,8.60
2022-11-02T11:23:38.893Z,8.80
2022-11-02T11:26:27.548Z,9.40
2022-11-02T11:28:57.134Z,8.40
2022-11-02T11:31:26.079Z,8.70
2022-11-02T11:33:58.330Z,9.40
2022-11-02T11:36:32.584Z,8.10
2022-11-02T11:39:20.094Z,8.70
2022-11-02T11:41:48.731Z,8.10
2022-11-02T11:44:17.951Z,8.50
2022-11-02T11:46:59.200Z,7.40
2022-11-02T11:50:02.929Z,6.60
2022-11-02T11:52:32.579Z,8.20
2022-11-02T11:55:20.488Z,8.50
2022-11-02T11:58:07.159Z,8.50
2022-11-02T12:00:36.184Z,7.90
2022-11-02T12:03:13.598Z,8.10
2022-11-02T12:06:22.566Z,8.90
2022-11-02T12:09:19.547Z,8.50
2022-11-02T12:11:52.352Z,8.40
2022-11-02T12:14:45.550Z,8.50
2022-11-02T12:17:30.132Z,8.70
2022-11-02T12:20:30.707Z,8.70
2022-11-02T12:23:14.861Z,8.90
2022-11-02T12:26:17.032Z,7.70
2022-11-02T12:29:23.046Z,7.70
2022-11-02T12:32:33.269Z,8.80
2022-11-02T12:35:35.627Z,7.70
2022-11-02T12:39:03.537Z,9.70
2022-11-02T12:41:49.679Z,8.80
2022-11-02T12:44:54.160Z,8.00
2022-11-02T12:47:37.582Z,9.20
2022-11-02T12:50:17.005Z,9.40
2022-11-02T12:53:22.678Z,9.40
2022-11-02T12:55:57.317Z,8.80
2022-11-02T12:58:30.365Z,9.70
2022-11-02T13:01:37.877Z,10.20
2022-11-02T13:04:29.562Z,10.90
2022-11-02T13:07:09.936Z,11.10
2022-11-02T13:10:06.263Z,10.80
2022-11-02T13:12:37.920Z,11.00
2022-11-02T13:15:12.783Z,12.20
2022-11-02T13:17:54.949Z,11.40
2022-11-02T13:20:44.439Z,11.60
2022-11-02T13:23:34.351Z,11.00
2022-11-02T13:26:09.764Z,10.60
2022-11-02T13:28:53.518Z,11.70
2022-11-02T13:31:44.867Z,11.70
2022-11-02T13:34:28.457Z,12.00
2022-11-02T13:36:57.035Z,12.50
2022-11-02T13:39:38.612Z,11.20
2022-11-02T13:42:53.225Z,11.70
2022-11-02T13:45:40.853Z,9.60
2022-11-02T13:48:32.174Z,11.90
2022-11-02T13:51:08.493Z,14.40
2022-11-02T13:53:48.620Z,12.30
2022-11-02T13:56:25.711Z,11.90
2022-11-02T13:59:10.506Z,13.30
2022-11-02T14:01:44.873Z,12.50
2022-11-02T14:04:15.947Z,12.90
2022-11-02T14:06:53.154Z,11.50
2022-11-02T14:09:30.688Z,12.80
2022-11-02T14:12:22.167Z,13.10
2022-11-02T14:15:22.492Z,13.30
2022-11-02T14:17:54.695Z,14.20
2022-11-02T14:20:38.580Z,13.60
2022-11-02T14:23:09.722Z,13.20
2022-11-02T14:25:50.098Z,13.40
2022-11-02T14:28:49.636Z,13.60
2022-11-02T14:31:18.092Z,13.10
2022-11-02T14:34:14.606Z,14.90
2022-11-02T14:36:58.695Z,14.70
2022-11-02T14:39:59.479Z,14.70
2022-11-02T14:43:09.570Z,13.50
2022-11-02T14:46:08.381Z,14.70
2022-11-02T14:49:05.560Z,12.80
2022-11-02T14:51:38.267Z,15.10
2022-11-02T14:54:17.507Z,17.60
2022-11-02T14:56:55.106Z,14.20
2022-11-02T14:59:30.031Z,15.30
2022-11-02T15:02:04.022Z,12.70
2022-11-02T15:07:06.723Z,14.40
2022-11-02T15:10:16.351Z,14.90
2022-11-02T15:12:49.569Z,14.00
2022-11-02T15:15:34.092Z,13.40
2022-11-02T15:18:31.579Z,15.30
2022-11-02T15:21:11.856Z,14.90
2022-11-02T15:23:59.431Z,15.50
2022-11-02T15:26:53.337Z,13.40
2022-11-02T15:29:27.498Z,14.60
2022-11-02T15:32:01.392Z,13.00
2022-11-02T15:34:50.454Z,13.10
2022-11-02T15:37:24.884Z,17.70
2022-11-02T15:39:57.450Z,18.60
2022-11-02T15:42:43.763Z,16.00
2022-11-02T15:45:46.730Z,15.70
2022-11-02T15:48:26.157Z,16.10
2022-11-02T15:51:28.386Z,18.40
2022-11-02T15:54:17.343Z,16.30
2022-11-02T15:57:29.561Z,15.00
2022-11-02T16:00:19.555Z,14.00
2022-11-02T16:02:53.305Z,15.00
2022-11-02T16:05:29.589Z,16.70
2022-11-02T16:08:10.811Z,15.60
2022-11-02T16:10:39.988Z,14.30
2022-11-02T16:13:17.315Z,15.30
2022-11-02T16:15:48.989Z,13.50
2022-11-02T16:18:37.152Z,14.30
2022-11-02T16:21:08.608Z,14.60
2022-11-02T16:23:40.458Z,15.40
2022-11-02T16:26:19.936Z,15.60
2022-11-02T16:28:54.552Z,15.60
2022-11-02T16:31:32.866Z,14.90
2022-11-02T16:34:21.454Z,14.30
2022-11-02T16:36:50.296Z,14.80
2022-11-02T16:39:32.093Z,15.30
2022-11-02T16:42:02.209Z,14.80
2022-11-02T16:44:33.673Z,18.00
2022-11-02T16:47:08.327Z,16.40
2022-11-02T16:49:51.925Z,14.80
2022-11-02T16:52:24.062Z,15.90
2022-11-02T16:54:52.468Z,17.60
2022-11-02T16:57:44.633Z,16.10
2022-11-02T17:00:20.854Z,14.80
2022-11-02T17:02:49.380Z,15.70
2022-11-02T17:05:24.553Z,14.80
2022-11-02T17:08:09.740Z,16.10
2022-11-02T17:10:39.507Z,16.60
2022-11-02T17:13:21.502Z,15.50
2022-11-02T17:15:52.065Z,15.90
2022-11-02T17:18:20.966Z,15.50
2022-11-02T17:21:12.282Z,14.90
2022-11-02T17:23:46.647Z,16.60
2022-11-02T17:26:26.600Z,16.00
2022-11-02T17:28:58.347Z,17.10
2022-11-02T17:31:31.086Z,16.10
2022-11-02T17:34:14.654Z,16.10
2022-11-02T17:36:45.571Z,15.40
2022-11-02T17:42:22.403Z,16.20
2022-11-02T17:44:51.078Z,15.40
2022-11-02T17:47:19.553Z,15.40
2022-11-02T17:49:48.079Z,16.80
2022-11-02T17:52:17.003Z,15.00
2022-11-02T17:54:45.422Z,16.30
2022-11-02T17:57:15.366Z,17.40
2022-11-02T17:59:44.045Z,16.50
2022-11-02T18:02:14.791Z,16.40
2022-11-02T18:07:16.873Z,15.90
2022-11-02T18:09:45.380Z,18.10
2022-11-02T18:12:14.947Z,16.70
2022-11-02T18:14:44.158Z,17.70
2022-11-02T18:17:12.678Z,16.60
2022-11-02T18:19:41.194Z,18.00
2022-11-02T18:22:12.199Z,18.40
2022-11-02T18:24:40.651Z,17.60
2022-11-02T18:27:09.239Z,17.90
2022-11-02T18:29:38.239Z,15.50
2022-11-02T18:32:06.828Z,18.60
2022-11-02T18:34:35.383Z,16.90
2022-11-02T18:37:03.957Z,17.70
2022-11-02T18:39:32.677Z,18.80
2022-11-02T18:42:01.184Z,20.30
2022-11-02T18:44:29.708Z,18.70
2022-11-02T18:46:59.509Z,18.20
2022-11-02T18:49:27.995Z,15.90
2022-11-02T18:51:56.501Z,17.90
2022-11-02T18:54:24.978Z,18.70
2022-11-02T18:56:53.482Z,19.50
2022-11-02T18:59:21.980Z,18.00
2022-11-02T19:01:50.562Z,19.70
2022-11-02T19:04:19.500Z,20.20
2022-11-02T19:07:06.507Z,20.50
2022-11-02T19:09:37.033Z,19.40
2022-11-02T19:12:08.971Z,19.70
2022-11-02T19:14:41.156Z,19.70
2022-11-02T19:17:12.010Z,20.00
2022-11-02T19:19:41.158Z,19.00
2022-11-02T19:22:14.128Z,18.90
2022-11-02T19:24:42.842Z,17.60
2022-11-02T19:27:25.453Z,19.10
2022-11-02T19:29:53.971Z,18.20
2022-11-02T19:32:22.601Z,16.50
2022-11-02T19:34:51.132Z,20.40
2022-11-02T19:37:20.468Z,17.70
2022-11-02T19:39:49.002Z,18.20
2022-11-02T19:42:17.498Z,16.80
2022-11-02T19:44:45.957Z,17.20
2022-11-02T19:47:14.475Z,18.50
2022-11-02T19:49:43.072Z,17.90
2022-11-02T19:52:11.565Z,18.90
2022-11-02T19:54:40.129Z,19.40
2022-11-02T19:57:08.621Z,18.80
2022-11-02T19:59:37.028Z,18.10
2022-11-02T20:02:05.429Z,17.70
2022-11-02T20:04:39.470Z,19.00
2022-11-02T20:07:10.545Z,18.20
2022-11-02T20:09:39.180Z,21.60
2022-11-02T20:12:07.925Z,19.30
2022-11-02T20:14:36.841Z,18.50
2022-11-02T20:17:29.767Z,19.80
2022-11-02T20:19:54.042Z,17.90
2022-11-02T20:22:22.624Z,19.70
2022-11-02T20:24:51.226Z,21.20
2022-11-02T20:27:19.787Z,18.10
2022-11-02T20:29:48.381Z,18.10
2022-11-02T20:32:20.464Z,20.00
2022-11-02T20:34:48.828Z,18.70
2022-11-02T20:37:17.323Z,19.70
2022-11-02T20:39:45.823Z,18.80
2022-11-02T20:42:14.281Z,18.60
2022-11-02T20:44:49.117Z,20.00
2022-11-02T20:47:17.542Z,20.20
2022-11-02T20:49:50.868Z,19.50
2022-11-02T20:52:22.093Z,21.40
2022-11-02T20:54:51.878Z,19.80
2022-11-02T20:57:22.593Z,13.60
2022-11-02T20:59:51.225Z,18.70
2022-11-02T21:02:22.439Z,17.80
2022-11-02T21:04:51.869Z,15.40
2022-11-02T21:07:20.453Z,16.10
2022-11-02T21:09:48.894Z,17.60
2022-11-02T21:12:35.581Z,14.10
2022-11-02T21:15:04.506Z,13.10
2022-11-02T21:17:34.829Z,16.10
2022-11-02T21:20:28.545Z,14.00
2022-11-02T21:22:52.101Z,14.20
2022-11-02T21:25:21.469Z,14.60
2022-11-02T21:27:51.187Z,17.70
2022-11-02T21:30:20.190Z,16.00
2022-11-02T21:32:53.202Z,15.30
2022-11-02T21:35:21.732Z,14.30
2022-11-02T21:37:50.449Z,13.60
2022-11-02T21:40:19.028Z,14.30
2022-11-02T21:42:49.342Z,14.60
2022-11-02T21:45:18.452Z,13.00
2022-11-02T21:47:49.785Z,12.30
2022-11-02T21:50:18.317Z,13.10
2022-11-02T21:52:46.905Z,12.40
2022-11-02T21:55:15.727Z,13.20
2022-11-02T21:57:44.826Z,13.40
2022-11-02T22:00:14.116Z,14.90
2022-11-02T22:02:42.707Z,11.40
2022-11-02T22:05:31.419Z,12.90
2022-11-02T22:08:18.329Z,11.80
2022-11-02T22:10:46.893Z,12.90
2022-11-02T22:13:36.386Z,10.60
2022-11-02T22:16:20.356Z,13.40
2022-11-02T22:18:49.426Z,9.20
2022-11-02T22:21:19.315Z,12.70
2022-11-02T22:23:49.145Z,12.90
2022-11-02T22:26:21.546Z,14.40
2022-11-02T22:28:50.962Z,10.20
2022-11-02T22:31:41.837Z,14.40
2022-11-02T22:34:12.784Z,12.30
2022-11-02T22:36:45.182Z,13.90
2022-11-02T22:39:14.492Z,12.50
2022-11-02T22:41:45.845Z,13.00
2022-11-02T22:44:20.386Z,11.60
2022-11-02T22:46:51.062Z,12.60
2022-11-02T22:49:19.972Z,11.40
2022-11-02T22:51:50.642Z,11.00
2022-11-02T22:54:20.137Z,14.30
2022-11-02T22:56:49.293Z,14.20
2022-11-02T22:59:17.806Z,13.30
2022-11-02T23:01:46.556Z,13.80
2022-11-02T23:04:15.256Z,11.80
2022-11-02T23:06:43.732Z,14.20
2022-11-02T23:09:12.455Z,12.50
2022-11-02T23:11:41.076Z,12.50
2022-11-02T23:14:13.122Z,13.90
2022-11-02T23:16:49.235Z,13.20
2022-11-02T23:19:28.274Z,13.90
2022-11-02T23:22:30.364Z,14.40
2022-11-02T23:25:17.146Z,13.80
2022-11-02T23:28:16.013Z,13.20
2022-11-02T23:31:03.321Z,14.20
2022-11-02T23:33:36.501Z,13.30
2022-11-02T23:36:11.427Z,13.30
2022-11-02T23:39:00.073Z,13.10
2022-11-02T23:41:30.929Z,13.30
2022-11-02T23:57:48.401Z,12.10
